Time;durP1;ratioP1;P1;durP2;ratioP2;P2;SDS_P1;SDS_P2;PMS_P1;PMS_P2;Temp;Humidity;BMP_temperature;BMP_pressure;BME280_temperature;BME280_humidity;BME280_pressure;Samples;Min_cycle;Max_cycle;Signal;HPM_P1;HPM_P2
2021/11/25 00:00:42;;;;;;;;;;;;;;;;;;4973723;28;20506;-75
2021/11/25 00:03:08;;;;;;;;;;;;;;;;;;4954872;28;19918;-75
2021/11/25 00:05:34;;;;;;;;;;;;;;;;;;4971112;28;19910;-74
2021/11/25 00:08:02;;;;;;;;;;;;;;;;;;4974056;28;19985;-73
2021/11/25 00:10:28;;;;;;;;;;;;;;;;;;4950537;28;19917;-74
2021/11/25 00:12:54;;;;;;;;;;;;;;;;;;4970750;28;19945;-74
2021/11/25 00:15:20;;;;;;;;;;;;;;;;;;4974318;28;25131;-75
2021/11/25 00:17:46;;;;;;;;;;;;;;;;;;4984484;28;19974;-80
2021/11/25 00:20:12;;;;;;;;;;;;;;;;;;4977500;28;19914;-75
2021/11/25 00:22:39;;;;;;;793.20;524.60;;;;;;;;;;4952342;28;19910;-74
2021/11/25 00:25:05;;;;;;;;;;;;;;;;;;4956546;28;20061;-74
2021/11/25 00:27:31;;;;;;;775.50;485.20;;;;;;;;;;4952605;28;19948;-74
2021/11/25 00:29:57;;;;;;;783.00;524.55;;;;;;;;;;4975676;28;20409;-74
2021/11/25 00:32:23;;;;;;;778.95;482.25;;;;;;;;;;4970236;28;20446;-74
2021/11/25 00:34:49;;;;;;;775.10;466.45;;;;;;;;;;4974925;28;20434;-74
2021/11/25 00:37:15;;;;;;;751.25;495.20;;;;;;;;;;4973777;28;20499;-74
2021/11/25 00:39:41;;;;;;;764.40;481.10;;;;;;;;;;4950926;28;20023;-74
2021/11/25 00:42:07;;;;;;;781.90;489.08;;;;;;;;;;4970501;28;20503;-74
2021/11/25 00:44:33;;;;;;;769.58;480.77;;;;;;;;;;4950009;28;20110;-75
2021/11/25 00:46:59;;;;;;;802.50;558.30;;;;;;;;;;4973450;28;20077;-76
2021/11/25 00:49:25;;;;;;;815.40;583.90;;;;;;;;;;4965718;28;20790;-74
2021/11/25 00:51:52;;;;;;;789.83;530.40;;;;;;;;;;4971583;28;25066;-74
2021/11/25 00:54:18;;;;;;;;;;;;;;;;;;4980774;28;20714;-75
2021/11/25 00:56:44;;;;;;;;;;;;;;;;;;4971616;28;19957;-74
2021/11/25 00:59:11;;;;;;;;;;;;;;;;;;4954570;28;20012;-74
2021/11/25 01:01:37;;;;;;;765.40;453.40;;;;;;;;;;4965042;28;20390;-75
2021/11/25 01:04:03;;;;;;;;;;;;;;;;;;4972477;28;19960;-75
2021/11/25 01:06:29;;;;;;;;;;;;;;;;;;4972085;28;20081;-75
2021/11/25 01:08:55;;;;;;;;;;;;;;;;;;4968168;28;19942;-75
2021/11/25 01:11:22;;;;;;;;;;;;;;;;;;4967753;28;20012;-74
2021/11/25 01:13:47;;;;;;;;;;;;;;;;;;4969160;28;19910;-74
2021/11/25 01:16:13;;;;;;;;;;;;;;;;;;4974264;28;20026;-74
2021/11/25 01:18:39;;;;;;;;;;;;;;;;;;4974692;28;19964;-75
2021/11/25 01:21:06;;;;;;;;;;;;;;;;;;4966212;28;19921;-74
2021/11/25 01:23:32;;;;;;;;;;;;;;;;;;4971539;28;20039;-74
2021/11/25 01:25:58;;;;;;;;;;;;;;;;;;4972940;28;20254;-75
2021/11/25 01:28:25;;;;;;;789.50;523.75;;;;;;;;;;4961900;28;20073;-74
2021/11/25 01:30:51;;;;;;;;;;;;;;;;;;4954026;28;20030;-75
2021/11/25 01:33:17;;;;;;;;;;;;;;;;;;4967875;28;19910;-75
2021/11/25 01:35:43;;;;;;;;;;;;;;;;;;4971643;28;20449;-74
2021/11/25 01:38:09;;;;;;;583.70;366.90;;;;;;;;;;4965952;28;19911;-75
2021/11/25 01:40:35;;;;;;;;;;;;;;;;;;4964217;28;20050;-74
2021/11/25 01:43:01;;;;;;;;;;;;;;;;;;4967999;28;19985;-74
2021/11/25 01:45:28;;;;;;;804.10;553.90;;;;;;;;;;4965819;28;19952;-74
2021/11/25 01:47:54;;;;;;;818.10;578.10;;;;;;;;;;4949926;28;19957;-74
2021/11/25 01:50:20;;;;;;;;;;;;;;;;;;4962472;28;19916;-74
2021/11/25 01:52:47;;;;;;;800.33;534.03;;;;;;;;;;4968371;28;19911;-73
2021/11/25 01:55:14;;;;;;;793.47;509.10;;;;;;;;;;4969061;28;20030;-74
2021/11/25 01:57:40;;;;;;;780.58;504.40;;;;;;;;;;4950123;28;20037;-74
2021/11/25 02:00:08;;;;;;;795.28;528.63;;;;;;;;;;4948298;28;20030;-75
2021/11/25 02:02:34;;;;;;;783.38;496.08;;;;;;;;;;4950796;28;20526;-75
2021/11/25 02:05:00;;;;;;;799.90;534.90;;;;;;;;;;4972827;28;20030;-73
2021/11/25 02:07:26;;;;;;;;;;;;;;;;;;4954037;28;20027;-73
2021/11/25 02:09:52;;;;;;;;;;;;;;;;;;4971125;28;19988;-73
2021/11/25 02:12:18;;;;;;;763.90;483.10;;;;;;;;;;4971454;28;19965;-73
2021/11/25 02:14:44;;;;;;;780.40;532.60;;;;;;;;;;4964718;28;20018;-73
2021/11/25 02:17:10;;;;;;;;;;;;;;;;;;4954513;28;19941;-74
2021/11/25 02:19:36;;;;;;;;;;;;;;;;;;4958926;28;25102;-74
2021/11/25 02:22:03;;;;;;;784.75;586.50;;;;;;;;;;4970918;28;19941;-73
2021/11/25 02:24:31;;;;;;;784.30;557.50;;;;;;;;;;4965528;28;20326;-73
2021/11/25 02:26:57;;;;;;;786.00;560.25;;;;;;;;;;4971263;28;20049;-73
2021/11/25 02:29:23;;;;;;;773.95;482.17;;;;;;;;;;4951294;28;19910;-73
2021/11/25 02:31:50;;;;;;;772.63;508.98;;;;;;;;;;4971673;28;20070;-73
2021/11/25 02:34:16;;;;;;;;;;;;;;;;;;4969850;28;20070;-73
2021/11/25 02:36:42;;;;;;;788.30;555.60;;;;;;;;;;4953072;28;19918;-74
2021/11/25 02:39:08;;;;;;;770.07;490.87;;;;;;;;;;4965489;28;19914;-73
2021/11/25 02:41:34;;;;;;;;;;;;;;;;;;4968452;28;20065;-74
2021/11/25 02:44:01;;;;;;;770.00;570.50;;;;;;;;;;4964847;28;20001;-73
2021/11/25 02:46:27;;;;;;;;;;;;;;;;;;4944105;28;20050;-73
2021/11/25 02:48:53;;;;;;;;;;;;;;;;;;4965338;28;19937;-73
2021/11/25 02:51:19;;;;;;;;;;;;;;;;;;4952995;28;19921;-73
2021/11/25 02:53:45;;;;;;;765.50;547.95;;;;;;;;;;4966606;28;20123;-74
2021/11/25 02:56:11;;;;;;;;;;;;;;;;;;4963434;28;20202;-74
2021/11/25 02:58:37;;;;;;;;;;;;;;;;;;4969499;28;19968;-73
2021/11/25 03:01:02;;;;;;;;;;;;;;;;;;4966280;28;19942;-73
2021/11/25 03:03:28;;;;;;;;;;;;;;;;;;4968393;28;25143;-73
2021/11/25 03:05:54;;;;;;;;;;;;;;;;;;4969199;28;19957;-73
2021/11/25 03:08:22;;;;;;;769.40;560.70;;;;;;;;;;4969641;28;20726;-73
2021/11/25 03:10:48;;;;;;;;;;;;;;;;;;4971981;28;19910;-73
2021/11/25 03:13:14;;;;;;;;;;;;;;;;;;4944913;28;19976;-73
2021/11/25 03:15:39;;;;;;;;;;;;;;;;;;4965101;28;20006;-75
2021/11/25 03:18:06;;;;;;;735.20;453.20;;;;;;;;;;4969653;28;20030;-74
2021/11/25 03:20:33;;;;;;;750.60;513.20;;;;;;;;;;4956493;28;20647;-73
2021/11/25 03:22:59;;;;;;;755.40;554.95;;;;;;;;;;4957903;28;20058;-73
2021/11/25 03:25:25;;;;;;;755.10;505.20;;;;;;;;;;4968113;28;19964;-73
2021/11/25 03:27:52;;;;;;;757.15;534.95;;;;;;;;;;4956297;28;19909;-72
2021/11/25 03:30:19;;;;;;;755.97;510.70;;;;;;;;;;4955134;28;20439;-73
2021/11/25 03:32:45;;;;;;;749.92;474.67;;;;;;;;;;4952671;28;20043;-73
2021/11/25 03:35:11;;;;;;;750.05;476.85;;;;;;;;;;4974062;28;20037;-73
2021/11/25 03:37:37;;;;;;;762.23;489.43;;;;;;;;;;4960288;28;20031;-73
2021/11/25 03:40:05;;;;;;;754.53;483.58;;;;;;;;;;4975293;28;20242;-73
2021/11/25 03:42:31;;;;;;;758.58;486.30;;;;;;;;;;4943711;28;20036;-74
2021/11/25 03:44:57;;;;;;;757.00;491.60;;;;;;;;;;4954599;28;20550;-74
2021/11/25 03:47:23;;;;;;;769.90;505.20;;;;;;;;;;4954657;28;20050;-78
2021/11/25 03:49:49;;;;;;;767.95;533.72;;;;;;;;;;4974139;28;20132;-73
2021/11/25 03:52:15;;;;;;;767.65;521.00;;;;;;;;;;4953495;28;20213;-73
2021/11/25 03:54:41;;;;;;;;;;;;;;;;;;4974621;28;20042;-73
2021/11/25 03:57:07;;;;;;;;;;;;;;;;;;4973704;28;20077;-74
2021/11/25 03:59:33;;;;;;;754.20;516.70;;;;;;;;;;4972401;28;19914;-73
2021/11/25 04:02:00;;;;;;;774.13;551.47;;;;;;;;;;4950126;28;20022;-73
2021/11/25 04:04:26;;;;;;;778.80;577.80;;;;;;;;;;4974628;28;19921;-73
2021/11/25 04:06:52;;;;;;;768.03;536.60;;;;;;;;;;4974546;28;20396;-73
2021/11/25 04:09:18;;;;;;;771.78;570.72;;;;;;;;;;4972957;28;19910;-74
2021/11/25 04:11:44;;;;;;;774.95;552.70;;;;;;;;;;4956159;28;20026;-73
2021/11/25 04:14:10;;;;;;;773.72;536.38;;;;;;;;;;4974715;28;20027;-73
2021/11/25 04:16:36;;;;;;;788.00;598.00;;;;;;;;;;4971450;28;20027;-74
2021/11/25 04:19:02;;;;;;;766.10;540.20;;;;;;;;;;4979131;28;20038;-74
2021/11/25 04:21:29;;;;;;;764.70;531.53;;;;;;;;;;4969337;28;20044;-74
2021/11/25 04:23:55;;;;;;;792.85;610.95;;;;;;;;;;4952228;28;20027;-74
2021/11/25 04:26:21;;;;;;;784.35;569.45;;;;;;;;;;4969661;28;19921;-73
2021/11/25 04:28:47;;;;;;;791.50;577.60;;;;;;;;;;4951314;28;20027;-73
2021/11/25 04:36:43;;;;;;;794.95;627.70;;;;;;;;;;4972488;28;20062;-74
2021/11/25 04:39:09;;;;;;;804.80;615.15;;;;;;;;;;4968464;28;20033;-74
2021/11/25 04:41:36;;;;;;;806.10;615.20;;;;;;;;;;4954196;28;20889;-74
2021/11/25 04:44:02;;;;;;;797.70;612.40;;;;;;;;;;4962413;28;20080;-75
2021/11/25 04:46:28;;;;;;;;;;;;;;;;;;4966905;28;19914;-74
2021/11/25 04:48:54;;;;;;;800.10;603.10;;;;;;;;;;4971784;28;20447;-75
2021/11/25 04:51:20;;;;;;;803.53;614.92;;;;;;;;;;5060994;23;20084;-80
2021/11/25 04:53:46;;;;;;;802.20;603.70;;;;;;;;;;4975351;28;20073;-79
2021/11/25 04:56:12;;;;;;;812.90;652.80;;;;;;;;;;4978688;28;20115;-79
2021/11/25 04:58:38;;;;;;;380.60;293.80;;;;;;;;;;4954926;28;20818;-80
2021/11/25 05:01:04;;;;;;;;;;;;;;;;;;4975007;28;20460;-79
2021/11/25 05:03:30;;;;;;;;;;;;;;;;;;4959649;28;20334;-80
2021/11/25 05:05:56;;;;;;;;;;;;;;;;;;4974296;28;20429;-80
2021/11/25 05:08:22;;;;;;;;;;;;;;;;;;4976480;28;20450;-78
2021/11/25 05:10:48;;;;;;;882.30;786.10;;;;;;;;;;4972369;28;20456;-79
2021/11/25 05:13:14;;;;;;;;;;;;;;;;;;4974966;28;20392;-79
2021/11/25 05:15:40;;;;;;;;;;;;;;;;;;4973363;28;19910;-80
2021/11/25 05:18:06;;;;;;;;;;;;;;;;;;4972242;28;19953;-83
2021/11/25 05:20:32;;;;;;;;;;;;;;;;;;4973120;28;19910;-82
2021/11/25 05:22:58;;;;;;;;;;;;;;;;;;4977678;28;20273;-80
2021/11/25 05:25:24;;;;;;;;;;;;;;;;;;4974689;28;19910;-81
2021/11/25 05:27:50;;;;;;;;;;;;;;;;;;4971787;28;20020;-80
2021/11/25 05:30:16;;;;;;;;;;;;;;;;;;4974766;28;19914;-82
2021/11/25 05:32:43;;;;;;;;;;;;;;;;;;4976138;28;20408;-82
2021/11/25 05:35:09;;;;;;;;;;;;;;;;;;4972368;28;19945;-82
2021/11/25 05:37:35;;;;;;;;;;;;;;;;;;4957214;28;20296;-81
2021/11/25 05:40:02;;;;;;;;;;;;;;;;;;4967402;28;19949;-81
2021/11/25 05:42:28;;;;;;;;;;;;;;;;;;4964173;28;20380;-79
2021/11/25 05:44:54;;;;;;;;;;;;;;;;;;4975102;28;20005;-78
2021/11/25 05:47:20;;;;;;;;;;;;;;;;;;4978027;28;19941;-82
2021/11/25 05:49:46;;;;;;;;;;;;;;;;;;4956895;28;19909;-81
2021/11/25 05:52:12;;;;;;;;;;;;;;;;;;4982218;28;20384;-81
2021/11/25 05:54:38;;;;;;;;;;;;;;;;;;4959661;28;20435;-81
2021/11/25 05:57:04;;;;;;;;;;;;;;;;;;4976935;28;20759;-81
2021/11/25 05:59:29;;;;;;;;;;;;;;;;;;4968906;28;20385;-81
2021/11/25 06:01:55;;;;;;;;;;;;;;;;;;4975754;28;20360;-83
2021/11/25 06:04:21;;;;;;;;;;;;;;;;;;4973204;28;20358;-84
2021/11/25 06:06:47;;;;;;;;;;;;;;;;;;4970501;28;20393;-82
2021/11/25 06:09:13;;;;;;;;;;;;;;;;;;4970300;28;20392;-83
2021/11/25 06:11:39;;;;;;;;;;;;;;;;;;4971138;28;20397;-83
2021/11/25 06:14:05;;;;;;;;;;;;;;;;;;4974106;28;20412;-81
2021/11/25 06:16:31;;;;;;;;;;;;;;;;;;4955809;28;20377;-82
2021/11/25 06:18:57;;;;;;;;;;;;;;;;;;4969609;28;20329;-83
2021/11/25 06:21:23;;;;;;;;;;;;;;;;;;4972819;28;20376;-80
2021/11/25 06:23:49;;;;;;;;;;;;;;;;;;4972670;28;20423;-83
2021/11/25 06:26:15;;;;;;;;;;;;;;;;;;4954970;28;20404;-80
2021/11/25 06:28:41;;;;;;;;;;;;;;;;;;4964592;28;20384;-80
2021/11/25 06:31:06;;;;;;;;;;;;;;;;;;4973072;28;20420;-81
2021/11/25 06:33:32;;;;;;;;;;;;;;;;;;4953545;28;19950;-83
2021/11/25 06:35:58;;;;;;;;;;;;;;;;;;4976852;28;19957;-82
2021/11/25 06:38:24;;;;;;;;;;;;;;;;;;4970336;28;19965;-84
2021/11/25 06:40:50;;;;;;;;;;;;;;;;;;4972277;28;19910;-83
2021/11/25 06:43:16;;;;;;;;;;;;;;;;;;4969497;28;20021;-81
2021/11/25 06:45:43;;;;;;;;;;;;;;;;;;4973198;28;19961;-82
2021/11/25 06:48:09;;;;;;;;;;;;;;;;;;4971307;28;19949;-82
2021/11/25 06:50:35;;;;;;;;;;;;;;;;;;4970879;28;19956;-84
2021/11/25 06:53:00;;;;;;;;;;;;;;;;;;4970712;28;20000;-82
2021/11/25 06:55:26;;;;;;;;;;;;;;;;;;4968155;28;19918;-84
2021/11/25 06:57:52;;;;;;;;;;;;;;;;;;4983986;28;20440;-84
2021/11/25 07:00:19;;;;;;;;;;;;;;;;;;4973679;28;19960;-84
2021/11/25 07:02:45;;;;;;;;;;;;;;;;;;4972320;28;19949;-81
2021/11/25 07:05:11;;;;;;;;;;;;;;;;;;4972641;28;20244;-82
2021/11/25 07:07:37;;;;;;;;;;;;;;;;;;4970024;28;19977;-82
2021/11/25 07:10:03;;;;;;;;;;;;;;;;;;4971030;28;19910;-82
2021/11/25 07:12:29;;;;;;;;;;;;;;;;;;4972003;28;19918;-82
2021/11/25 07:14:55;;;;;;;;;;;;;;;;;;4972972;28;19957;-81
2021/11/25 07:17:21;;;;;;;;;;;;;;;;;;4973568;28;19933;-81
2021/11/25 07:19:47;;;;;;;;;;;;;;;;;;4968417;28;19953;-84
2021/11/25 07:22:13;;;;;;;;;;;;;;;;;;4959530;28;19932;-81
2021/11/25 07:24:40;;;;;;;;;;;;;;;;;;4971889;28;19997;-78
2021/11/25 07:27:06;;;;;;;;;;;;;;;;;;4964873;28;19949;-80
2021/11/25 07:29:33;;;;;;;;;;;;;;;;;;4967403;28;19996;-81
2021/11/25 07:32:00;;;;;;;;;;;;;;;;;;4972136;28;19914;-81
2021/11/25 07:34:26;;;;;;;;;;;;;;;;;;4972798;28;20428;-84
2021/11/25 07:36:52;;;;;;;;;;;;;;;;;;4972765;28;20387;-81
2021/11/25 07:39:18;;;;;;;;;;;;;;;;;;4969714;28;20391;-81
2021/11/25 07:41:44;;;;;;;;;;;;;;;;;;4969545;28;19950;-83
2021/11/25 07:44:10;;;;;;;;;;;;;;;;;;4971550;28;20447;-81
2021/11/25 07:46:36;;;;;;;;;;;;;;;;;;4970609;28;20407;-81
2021/11/25 07:49:02;;;;;;;;;;;;;;;;;;4973993;28;19954;-81
2021/11/25 07:51:28;;;;;;;;;;;;;;;;;;4955267;28;19918;-81
2021/11/25 07:53:54;;;;;;;;;;;;;;;;;;4971587;28;19938;-82
2021/11/25 07:56:20;;;;;;;;;;;;;;;;;;4967759;28;19949;-79
2021/11/25 07:58:46;;;;;;;;;;;;;;;;;;4968527;28;20361;-81
2021/11/25 08:01:12;;;;;;;;;;;;;;;;;;4972246;28;20444;-81
2021/11/25 08:03:38;;;;;;;;;;;;;;;;;;4971895;28;19910;-84
2021/11/25 08:06:04;;;;;;;;;;;;;;;;;;4972673;28;19965;-83
2021/11/25 08:08:30;;;;;;;;;;;;;;;;;;4969610;28;19941;-83
2021/11/25 08:10:57;;;;;;;;;;;;;;;;;;4972404;28;19918;-83
2021/11/25 08:13:24;;;;;;;;;;;;;;;;;;4968245;28;19910;-82
2021/11/25 08:15:50;;;;;;;;;;;;;;;;;;4973069;28;19918;-81
2021/11/25 08:18:16;;;;;;;;;;;;;;;;;;4951628;28;19910;-83
2021/11/25 08:20:42;;;;;;;;;;;;;;;;;;4973584;28;19918;-81
2021/11/25 08:23:08;;;;;;;;;;;;;;;;;;4972438;28;19964;-81
2021/11/25 08:25:34;;;;;;;;;;;;;;;;;;4966401;28;19910;-83
2021/11/25 08:28:01;;;;;;;;;;;;;;;;;;4973236;28;19949;-80
2021/11/25 08:30:27;;;;;;;;;;;;;;;;;;4974401;28;19917;-84
2021/11/25 08:32:53;;;;;;;;;;;;;;;;;;4974098;28;20296;-85
2021/11/25 08:35:19;;;;;;;;;;;;;;;;;;4958227;28;19910;-82
2021/11/25 08:37:45;;;;;;;;;;;;;;;;;;4971776;28;19924;-83
2021/11/25 08:40:11;;;;;;;;;;;;;;;;;;4974997;28;19924;-80
2021/11/25 08:42:37;;;;;;;;;;;;;;;;;;4980321;28;20446;-81
2021/11/25 08:45:03;;;;;;;;;;;;;;;;;;4975183;28;19961;-81
2021/11/25 08:47:29;;;;;;;;;;;;;;;;;;4972713;28;20328;-79
2021/11/25 08:49:55;;;;;;;;;;;;;;;;;;4973847;28;19946;-81
2021/11/25 08:52:21;;;;;;;;;;;;;;;;;;4975078;28;19952;-81
2021/11/25 08:54:47;;;;;;;;;;;;;;;;;;4974624;28;19910;-80
2021/11/25 08:57:13;;;;;;;;;;;;;;;;;;4957909;28;19961;-81
2021/11/25 08:59:39;;;;;;;;;;;;;;;;;;4969810;28;19965;-83
2021/11/25 09:02:05;;;;;;;;;;;;;;;;;;5001892;23;19922;-75
2021/11/25 09:04:31;;;;;;;;;;;;;;;;;;5025214;23;19922;-76
2021/11/25 09:06:56;;;;;;;;;;;;;;;;;;4996313;28;20414;-76
2021/11/25 09:09:22;;;;;;;;;;;;;;;;;;4988211;28;20015;-76
2021/11/25 09:11:48;;;;;;;;;;;;;;;;;;4982862;28;20331;-76
2021/11/25 09:14:14;;;;;;;;;;;;;;;;;;4980692;28;20026;-75
2021/11/25 09:16:40;;;;;;;;;;;;;;;;;;4992780;28;19953;-75
2021/11/25 09:19:06;;;;;;;;;;;;;;;;;;4972478;28;19960;-75
2021/11/25 09:21:32;;;;;;;;;;;;;;;;;;4993025;28;19933;-75
2021/11/25 09:23:58;;;;;;;;;;;;;;;;;;4998039;28;20238;-75
2021/11/25 09:26:24;;;;;;;;;;;;;;;;;;4989729;28;19934;-74
2021/11/25 09:28:50;;;;;;;;;;;;;;;;;;4986653;28;20432;-74
2021/11/25 09:31:18;;;;;;;;;;;;;;;;;;4991432;28;19920;-74
2021/11/25 09:33:44;;;;;;;;;;;;;;;;;;4986452;28;19914;-74
2021/11/25 09:36:10;;;;;;;;;;;;;;;;;;4996160;28;19909;-74
2021/11/25 09:38:36;;;;;;;;;;;;;;;;;;5006844;28;19964;-74
2021/11/25 09:41:02;;;;;;;;;;;;;;;;;;4999667;28;19957;-74
2021/11/25 09:43:28;;;;;;;;;;;;;;;;;;4999633;28;19945;-74
2021/11/25 09:45:54;;;;;;;;;;;;;;;;;;5000658;28;19985;-74
2021/11/25 09:48:20;;;;;;;;;;;;;;;;;;4992335;28;19964;-74
2021/11/25 09:50:46;;;;;;;;;;;;;;;;;;4991086;28;20410;-74
2021/11/25 09:53:13;;;;;;;;;;;;;;;;;;4991311;28;19913;-74
2021/11/25 09:55:38;;;;;;;;;;;;;;;;;;4997768;28;20368;-75
2021/11/25 09:58:04;;;;;;;;;;;;;;;;;;4993445;28;20175;-74
2021/11/25 10:00:32;;;;;;;;;;;;;;;;;;5001118;28;19953;-74
2021/11/25 10:02:58;;;;;;;;;;;;;;;;;;4990113;28;19909;-74
2021/11/25 10:05:24;;;;;;;;;;;;;;;;;;4998231;28;20016;-74
2021/11/25 10:07:50;;;;;;;;;;;;;;;;;;4993009;28;19937;-75
2021/11/25 10:10:16;;;;;;;;;;;;;;;;;;4999464;28;20360;-74
2021/11/25 10:12:42;;;;;;;;;;;;;;;;;;4991019;28;19918;-74
2021/11/25 10:15:08;;;;;;;;;;;;;;;;;;4993919;28;20370;-74
2021/11/25 10:17:34;;;;;;;;;;;;;;;;;;4990121;28;20029;-74
2021/11/25 10:20:00;;;;;;;;;;;;;;;;;;4988652;28;19945;-74
2021/11/25 10:22:26;;;;;;;;;;;;;;;;;;5002017;28;19944;-74
2021/11/25 10:24:52;;;;;;;;;;;;;;;;;;4995768;28;19952;-74
2021/11/25 10:27:18;;;;;;;;;;;;;;;;;;4979115;28;20399;-75
2021/11/25 10:29:44;;;;;;;;;;;;;;;;;;5002380;28;19948;-74
2021/11/25 10:32:10;;;;;;;;;;;;;;;;;;4990703;28;19941;-75
2021/11/25 10:34:39;;;;;;;;;;;;;;;;;;4981517;28;19964;-75
2021/11/25 10:37:17;;;;;;;;;;;;;;;;;;4977902;28;20268;-74
2021/11/25 10:42:12;;;;;;;;;;;;;;;;;;4999461;28;20383;-75
2021/11/25 10:44:38;;;;;;;;;;;;;;;;;;4973952;28;19963;-76
2021/11/25 10:47:05;;;;;;;;;;;;;;;;;;4995966;28;19987;-76
2021/11/25 10:49:31;;;;;;;;;;;;;;;;;;4973434;28;19909;-74
2021/11/25 10:51:57;;;;;;;;;;;;;;;;;;4970572;28;19976;-79
2021/11/25 10:54:23;;;;;;;;;;;;;;;;;;4989388;28;19972;-75
2021/11/25 10:56:49;;;;;;;;;;;;;;;;;;4990157;28;19972;-76
2021/11/25 10:59:15;;;;;;;;;;;;;;;;;;4978854;28;20432;-76
2021/11/25 11:01:41;;;;;;;;;;;;;;;;;;4989661;28;19920;-75
2021/11/25 11:04:07;;;;;;;;;;;;;;;;;;4995194;28;19964;-75
2021/11/25 11:06:33;;;;;;;;;;;;;;;;;;4998578;28;19920;-76
2021/11/25 11:08:59;;;;;;;;;;;;;;;;;;4990082;28;19917;-75
2021/11/25 11:11:26;;;;;;;;;;;;;;;;;;4990244;28;20409;-75
2021/11/25 11:14:11;;;;;;;;;;;;;;;;;;4992420;28;19909;-77
2021/11/25 11:16:49;;;;;;;;;;;;;;;;;;4977799;28;19909;-75
2021/11/25 11:19:15;;;;;;;;;;;;;;;;;;4993577;28;19913;-76
2021/11/25 11:21:41;;;;;;;;;;;;;;;;;;4979810;28;19945;-75
2021/11/25 11:24:07;;;;;;;;;;;;;;;;;;4993390;28;20004;-75
2021/11/25 11:26:33;;;;;;;;;;;;;;;;;;4990823;28;20029;-77
2021/11/25 11:29:00;;;;;;;;;;;;;;;;;;4991079;28;20396;-76
2021/11/25 11:31:26;;;;;;;;;;;;;;;;;;4991198;28;19960;-76
2021/11/25 11:33:52;;;;;;;;;;;;;;;;;;4989080;28;20380;-76
2021/11/25 11:36:20;;;;;;;;;;;;;;;;;;4974897;28;20400;-77
2021/11/25 11:38:46;;;;;;;;;;;;;;;;;;4968576;28;19929;-76
2021/11/25 11:41:12;;;;;;;;;;;;;;;;;;4966424;28;19957;-77
2021/11/25 11:43:38;;;;;;;;;;;;;;;;;;4979954;28;19961;-77
2021/11/25 11:46:04;;;;;;;;;;;;;;;;;;4990842;28;20253;-76
2021/11/25 11:48:30;;;;;;;;;;;;;;;;;;4988655;28;20343;-75
2021/11/25 11:50:57;;;;;;;;;;;;;;;;;;4993520;28;19941;-82
2021/11/25 11:53:23;;;;;;;;;;;;;;;;;;4988418;28;19933;-80
2021/11/25 11:55:49;;;;;;;;;;;;;;;;;;4992828;28;19914;-81
2021/11/25 11:58:15;;;;;;;;;;;;;;;;;;4979967;28;19910;-82
2021/11/25 12:00:41;;;;;;;;;;;;;;;;;;4997204;28;19949;-83
2021/11/25 12:03:07;;;;;;;;;;;;;;;;;;4998169;28;19916;-79
2021/11/25 12:05:33;;;;;;;;;;;;;;;;;;4987065;28;19983;-83
2021/11/25 12:07:58;;;;;;;;;;;;;;;;;;4974404;28;19965;-80
2021/11/25 12:10:24;;;;;;;;;;;;;;;;;;4976856;28;19910;-80
2021/11/25 12:12:50;;;;;;;;;;;;;;;;;;4992617;28;19952;-81
2021/11/25 12:15:16;;;;;;;;;;;;;;;;;;4985252;28;19960;-82
2021/11/25 12:17:42;;;;;;;;;;;;;;;;;;4994443;28;20056;-78
2021/11/25 12:20:08;;;;;;;;;;;;;;;;;;5006658;28;20006;-82
2021/11/25 12:22:34;;;;;;;;;;;;;;;;;;4975171;28;19976;-82
2021/11/25 12:25:01;;;;;;;;;;;;;;;;;;4992814;28;19941;-82
2021/11/25 12:27:31;;;;;;;;;;;;;;;;;;4992464;28;19932;-81
2021/11/25 12:29:59;;;;;;;;;;;;;;;;;;4970944;28;19960;-80
2021/11/25 12:35:00;;;;;;;;;;;;;;;;;;4999874;28;19914;-82
2021/11/25 12:37:26;;;;;;;;;;;;;;;;;;4990765;28;19940;-81
2021/11/25 12:39:52;;;;;;;;;;;;;;;;;;4995232;28;19914;-79
2021/11/25 12:42:18;;;;;;;;;;;;;;;;;;4979227;28;19988;-78
2021/11/25 12:44:44;;;;;;;;;;;;;;;;;;5000647;28;20015;-83
2021/11/25 12:47:10;;;;;;;;;;;;;;;;;;4976265;28;19948;-84
2021/11/25 12:49:36;;;;;;;;;;;;;;;;;;4990929;28;19952;-84
2021/11/25 12:52:01;;;;;;;;;;;;;;;;;;4994809;28;19910;-78
2021/11/25 12:54:27;;;;;;;;;;;;;;;;;;4994586;28;19948;-80
2021/11/25 12:56:53;;;;;;;;;;;;;;;;;;4989661;28;19980;-79
2021/11/25 12:59:19;;;;;;;;;;;;;;;;;;4993301;28;19996;-83
2021/11/25 13:01:45;;;;;;;;;;;;;;;;;;4983540;28;19952;-83
2021/11/25 13:04:14;;;;;;;;;;;;;;;;;;4991376;28;19944;-78
2021/11/25 13:06:42;;;;;;;;;;;;;;;;;;4973821;28;19914;-79
2021/11/25 13:09:08;;;;;;;;;;;;;;;;;;4992317;28;19925;-78
2021/11/25 13:11:34;;;;;;;;;;;;;;;;;;4992719;28;19948;-80
2021/11/25 13:13:59;;;;;;;;;;;;;;;;;;4999310;28;19921;-82
2021/11/25 13:16:25;;;;;;;;;;;;;;;;;;4976414;28;19992;-78
2021/11/25 13:18:51;;;;;;;;;;;;;;;;;;4998748;28;19952;-82
2021/11/25 13:21:18;;;;;;;;;;;;;;;;;;4997557;28;19993;-82
2021/11/25 13:23:44;;;;;;;;;;;;;;;;;;4999055;28;19941;-83
2021/11/25 13:26:10;;;;;;;;;;;;;;;;;;4992055;28;19971;-82
2021/11/25 13:28:36;;;;;;;;;;;;;;;;;;4972248;28;20399;-83
2021/11/25 13:31:02;;;;;;;;;;;;;;;;;;4987734;28;19909;-78
2021/11/25 13:33:31;;;;;;;;;;;;;;;;;;4974386;28;20369;-78
2021/11/25 13:35:57;;;;;;;;;;;;;;;;;;4996867;28;20287;-79
2021/11/25 13:38:23;;;;;;;;;;;;;;;;;;4997128;28;20004;-78
2021/11/25 13:40:49;;;;;;;;;;;;;;;;;;5008589;28;19957;-79
2021/11/25 13:43:15;;;;;;;;;;;;;;;;;;4974386;28;19964;-79
2021/11/25 13:45:41;;;;;;;;;;;;;;;;;;4972996;28;20027;-79
2021/11/25 13:48:07;;;;;;;;;;;;;;;;;;4988467;28;19944;-80
2021/11/25 13:50:37;;;;;;;;;;;;;;;;;;4983047;28;19914;-78
2021/11/25 13:53:05;;;;;;;;;;;;;;;;;;4987188;28;19924;-83
2021/11/25 13:55:31;;;;;;;;;;;;;;;;;;4993472;28;19916;-82
2021/11/25 13:57:58;;;;;;;;;;;;;;;;;;4988075;28;20199;-78
2021/11/25 14:00:24;;;;;;;;;;;;;;;;;;4984905;28;19937;-79
2021/11/25 14:02:50;;;;;;;;;;;;;;;;;;4991763;28;20343;-80
2021/11/25 14:05:16;;;;;;;;;;;;;;;;;;4992663;28;20015;-78
2021/11/25 14:07:43;;;;;;;;;;;;;;;;;;4990300;28;19976;-80
2021/11/25 14:10:09;;;;;;;;;;;;;;;;;;4979483;28;20278;-81
2021/11/25 14:12:35;;;;;;;;;;;;;;;;;;4991257;28;19916;-82
2021/11/25 14:15:01;;;;;;;;;;;;;;;;;;4975527;28;19909;-82
2021/11/25 14:17:27;;;;;;;;;;;;;;;;;;4998934;28;19969;-82
2021/11/25 14:19:53;;;;;;;;;;;;;;;;;;4991184;28;19941;-82
2021/11/25 14:22:19;;;;;;;;;;;;;;;;;;4992925;28;20376;-81
2021/11/25 14:24:44;;;;;;;;;;;;;;;;;;4993814;28;20000;-80
2021/11/25 14:32:27;;;;;;;;;;;;;;;;;;4991512;28;19963;-80
2021/11/25 14:34:53;;;;;;;;;;;;;;;;;;4991595;28;19914;-77
2021/11/25 14:37:19;;;;;;;;;;;;;;;;;;5000247;28;19937;-80
2021/11/25 14:39:45;;;;;;;;;;;;;;;;;;4989490;28;19919;-78
2021/11/25 14:42:18;;;;;;;;;;;;;;;;;;4977588;28;19913;-79
2021/11/25 14:44:44;;;;;;;;;;;;;;;;;;4990138;28;19917;-79
2021/11/25 14:47:13;;;;;;;;;;;;;;;;;;4984746;28;19945;-79
2021/11/25 14:49:39;;;;;;;;;;;;;;;;;;4980778;28;19968;-79
2021/11/25 14:52:05;;;;;;;;;;;;;;;;;;4982897;28;19917;-77
2021/11/25 14:54:31;;;;;;;;;;;;;;;;;;4985271;28;19945;-78
2021/11/25 14:56:56;;;;;;;;;;;;;;;;;;4988069;28;20010;-80
2021/11/25 14:59:25;;;;;;;;;;;;;;;;;;4979947;28;19959;-77
2021/11/25 15:01:51;;;;;;;;;;;;;;;;;;4984760;28;20349;-78
2021/11/25 15:04:17;;;;;;;;;;;;;;;;;;4981895;28;19956;-79
2021/11/25 15:06:43;;;;;;;;;;;;;;;;;;4983762;28;19933;-79
2021/11/25 15:09:09;;;;;;;;;;;;;;;;;;4980980;28;19956;-78
2021/11/25 15:11:35;;;;;;;;;;;;;;;;;;4990255;28;19983;-78
2021/11/25 15:14:01;;;;;;;;;;;;;;;;;;4982274;28;20376;-79
2021/11/25 15:16:27;;;;;;;;;;;;;;;;;;4984905;28;19921;-78
2021/11/25 15:18:53;;;;;;;;;;;;;;;;;;4982259;28;20398;-78
2021/11/25 15:21:19;;;;;;;;;;;;;;;;;;4983444;28;20372;-78
2021/11/25 15:23:44;;;;;;;;;;;;;;;;;;4983265;28;20396;-79
2021/11/25 15:26:11;;;;;;;;;;;;;;;;;;4984694;28;20404;-78
2021/11/25 15:28:37;;;;;;;;;;;;;;;;;;4961793;28;19914;-76
2021/11/25 15:31:03;;;;;;;;;;;;;;;;;;4988328;28;19917;-76
2021/11/25 15:33:29;;;;;;;;;;;;;;;;;;4965503;28;19953;-78
2021/11/25 15:36:05;;;;;;;;;;;;;;;;;;4986855;28;19925;-76
2021/11/25 15:38:31;;;;;;;;;;;;;;;;;;5087663;23;20210;-78
2021/11/25 15:40:56;;;;;;;;;;;;;;;;;;4988430;28;20077;-78
2021/11/25 15:43:22;;;;;;;;;;;;;;;;;;4981991;28;19945;-79
2021/11/25 15:45:50;;;;;;;;;;;;;;;;;;4990053;28;19999;-77
2021/11/25 15:48:16;;;;;;;;;;;;;;;;;;4990484;28;19996;-80
2021/11/25 15:50:42;;;;;;;;;;;;;;;;;;4972003;28;19956;-80
2021/11/25 15:53:08;;;;;;;;;;;;;;;;;;4996519;28;19945;-79
2021/11/25 15:55:34;;;;;;;;;;;;;;;;;;4989165;28;19953;-79
2021/11/25 15:58:00;;;;;;;;;;;;;;;;;;4987986;28;20288;-78
2021/11/25 16:00:26;;;;;;;;;;;;;;;;;;4990071;28;19921;-81
2021/11/25 16:02:52;;;;;;;;;;;;;;;;;;4969169;28;20403;-80
2021/11/25 16:05:18;;;;;;;;;;;;;;;;;;4991854;28;19956;-81
2021/11/25 16:07:44;;;;;;;;;;;;;;;;;;4985043;28;19976;-81
2021/11/25 16:10:10;;;;;;;;;;;;;;;;;;4993698;28;19913;-80
2021/11/25 16:12:36;;;;;;;;;;;;;;;;;;4992673;28;19996;-80
2021/11/25 16:15:02;;;;;;;;;;;;;;;;;;4989447;28;19952;-79
2021/11/25 16:17:28;;;;;;;;;;;;;;;;;;4981483;28;20577;-80